Wanneroo, Australia
Current Conditions -  °F | °C
As of 4:00 AM on Wednesday 22 Oct 2014 (Local Time) from YPEA Reporting Station
Clear Clear  
Wind Chill: 66°   Ceiling: Unl
Heat Index: 66°   Visibility: 6mi
Dew Point: 54°   Wind: 21mph
Humidity: 64%   Direction: 90°E
Pressure: 29.91"   Gusts: NA
Location:  31.75°S, 115.81°E
Report Text: YPEA 212000Z AUTO 09018KT 9999 // NCD 19/12 Q1013
Loading
Personal Weather Stations






























Interactive Weather Map
Tropical Storm Tracking
New forecast layout! Learn more

10-Day Weather Forecast

Advertisements
Track Severe Weather on mobile